Impacts TAF Board
For situational awareness. Not to be used for flight planning purposes.
IDs:

KVRB - Vero Beach Muni, FL, US

Issued at 1736 UTC 30 Jun 2022
Updated at 2238 UTC 30 Jun 2022
Potential Impact None Slight Moderate High
Time2153Z 30/23Z 01/00Z 01/01Z 01/02Z 01/03Z 01/04Z 01/05Z 01/06Z 01/07Z 01/08Z 01/09Z 01/10Z 01/11Z>>
Type OBS PRVL PRVL PRVL PRVL PRVL PRVL PRVL PRVL PRVL PRVL PRVL PRVL PRVL
VIS 10 >6 >6 >6 >6 >6 >6 >6 >6 >6 >6 >6 >6 >6
CIG -- 250 120 120 120 120 120 140 140 140 140 140 140 140
Cover FEW BKN BKN BKN BKN BKN BKN BKN BKN BKN BKN BKN BKN BKN
FltCat VFR VFR VFR VFR VFR VFR VFR VFR VFR VFR VFR VFR VFR VFR
WX -- -- VCSH VCSH VCSH VCSH VCSH -- -- -- -- -- -- --
WDir 140 120 140 140 140 140 140 160 160 160 160 160 160 160
WSpd 14 10 6 6 6 6 6 4 4 4 4 4 4 4
WGst -- -- -- -- -- -- -- -- -- -- -- -- -- --
WSHgt -- -- -- -- -- -- -- -- -- -- -- -- -- --
WSDir -- -- -- -- -- -- -- -- -- -- -- -- -- --
WSSpd -- -- -- -- -- -- -- -- -- -- -- -- -- --
Raw TAF
KVRB 301736Z 3018/0118 17006KT P6SM VCTS SCT035CB SCT140 BKN250
  TEMPO 3018/3019 3SM TSRA BKN025CB
  FM301900 12010KT P6SM SCT040 BKN250
  FM010000 14006KT P6SM VCSH FEW030 SCT060 BKN120
  FM010500 16004KT P6SM SCT080 BKN140
  FM011400 16007KT P6SM SCT035 SCT080 BKN200


Raw METAR
KVRB 302153Z 14014KT 10SM FEW024 31/24 A3009 RMK AO2 LTG DSNT S AND NW SLP187 T03060244
KVRB 302053Z 13014KT 10SM SCT024 31/24 A3009 RMK AO2 LTG DSNT NW SLP188 T03060244 56015
KVRB 301953Z 14013KT 10SM CLR 31/24 A3009 RMK AO2 LTG DSNT NW SLP188 T03060244

METAR Board
Radar Display
Forecast Discussion
For situational awareness. Not to be used for flight planning purposes.